• Join FlightAware (Why Join?)
  • Login
  • US Flag 
01:04PM EDT


 

Airport Tracker/Info


-or-


 

Live Flight TrackerFlight Track Log ✈ UAL1177 ✈ 23-May-2013 ✈ KEWR - KDFW

Flight Track Log - Related Links

Times and Time Zones

All times are in EDT time to prevent confusion due to time zone crossing. See the UAL1177 flight status page for this flight to view local times or setup timezone preferences in your user account.

Time Position Orientation Groundspeed Altitude Reporting Facility
EDT Latitude Longitude Course Direction KTS MPH feet Rate Location/Type
02:35PM 40.6500 -74.1833 201° Southwest 205 236 2,000  Level New York TRACON
02:36PM 40.6167 -74.2667 242° Southwest 222 255 4,800 2,880 Climbing New York TRACON
02:37PM 40.6221 -74.5564 259° West  Level FlightAware Approximate
02:37PM 40.6167 -74.3333 270° West 253 291 7,500  Level New York TRACON
02:38PM 40.6016 -74.6896 259° West  Level FlightAware Approximate
02:38PM 40.6000 -74.4333 258° West 265 305 10,300  Level New York TRACON
02:39PM 40.5797 -74.8223 258° West  Level FlightAware Approximate
02:39PM 40.6000 -74.5500 270° West 332 382 11,700  Level New York TRACON
02:40PM 40.5597 -74.9543 246° West  Level FlightAware Approximate
02:40PM 40.5833 -74.6833 261° West 349 402 14,300  Level New York TRACON
02:41PM 40.5233 -75.0717 201° Southwest  Level FlightAware Approximate
02:41PM 40.5833 -74.8000 270° West 365 420 16,500  Level New York TRACON
02:43PM 40.5639 -74.9725 262° West 369 425 18,000 2,100 Climbing New York Center
02:44PM 40.5308 -75.0769 247° West 325 374 21,500 1,980 Climbing New York Center
02:45PM 40.4778 -75.1664 232° Southwest 318 366 21,900 360 Climbing New York Center
02:46PM 40.4181 -75.2553 229° Southwest 316 364 22,300 540 Climbing New York Center
02:47PM 40.3603 -75.3497 231° Southwest 353 406 23,000 1,260 Climbing New York Center
02:48PM 40.2914 -75.4567 230° Southwest 377 434 24,800 1,680 Climbing New York Center
02:49PM 40.2225 -75.5661 231° Southwest 395 455 26,500 1,500 Climbing New York Center
02:50PM 40.1631 -75.6897 238° Southwest 401 461 27,900 1,320 Climbing New York Center
02:51PM 40.0997 -75.8103 236° Southwest 408 470 29,200 1,500 Climbing New York Center
02:52PM 40.0400 -75.9333 238° Southwest 408 470 31,000 1,560 Climbing New York Center
02:53PM 39.9808 -76.0508 237° Southwest 402 463 32,300 1,200 Climbing New York Center
02:54PM 39.9192 -76.1681 236° Southwest 396 456 33,400 1,140 Climbing New York Center
02:55PM 39.8175 -76.3667 236° Southwest 410 472 35,300 960 Climbing Washington Center
02:56PM 39.7583 -76.4822 236° Southwest 400 460 35,900 300 Climbing Washington Center
02:57PM 39.6928 -76.5947 233° Southwest 395 455 36,000  Climbing Washington Center
02:58PM 39.6314 -76.7125 236° Southwest 395 455 36,000  Level Washington Center
02:59PM 39.5697 -76.8325 236° Southwest 395 455 36,000  Level Washington Center
03:00PM 39.5081 -76.9472 235° Southwest 395 455 36,000  Level Washington Center
03:01PM 39.4297 -77.0450 224° Southwest 395 455 36,000  Level Washington Center
03:02PM 39.3453 -77.1347 219° Southwest 390 449 36,000  Level Washington Center
03:03PM 39.2608 -77.2242 219° Southwest 390 449 36,000  Level Washington Center
03:04PM 39.1783 -77.3106 219° Southwest 390 449 36,000  Level Washington Center
03:05PM 39.0936 -77.3994 219° Southwest 390 449 36,000  Level Washington Center
03:06PM 39.0111 -77.4831 218° Southwest 390 449 36,000  Level Washington Center
03:07PM 38.9347 -77.5636 219° Southwest 390 449 36,000  Level Washington Center
03:08PM 38.8414 -77.6597 219° Southwest 395 455 36,000  Level Washington Center
03:09PM 38.7650 -77.7375 218° Southwest 390 449 36,000  Level Washington Center
03:10PM 38.6778 -77.8281 219° Southwest 397 457 36,000  Level Washington Center
03:11PM 38.5950 -77.9158 220° Southwest 397 457 36,000  Level Washington Center
03:12PM 38.5056 -78.0008 217° Southwest 397 457 36,000  Level Washington Center
03:13PM 38.4206 -78.0800 216° Southwest 397 457 36,000  Level Washington Center
03:14PM 38.3333 -78.1619 216° Southwest 397 457 36,000  Level Washington Center
03:15PM 38.2461 -78.2461 217° Southwest 397 457 36,000  Level Washington Center
03:16PM 38.1550 -78.3142 210° Southwest 397 457 36,000  Level Washington Center
03:17PM 38.0617 -78.3847 211° Southwest 391 450 36,000  Level Washington Center
03:18PM 37.9742 -78.4578 213° Southwest 386 444 36,000  Level Washington Center
03:19PM 37.8989 -78.5522 225° Southwest 386 444 36,000  Level Washington Center
03:20PM 37.8294 -78.6628 232° Southwest 386 444 36,000  Level Washington Center
03:21PM 37.7867 -78.7869 246° West 398 458 36,000  Level Washington Center
03:22PM 37.7347 -78.9319 246° West 404 465 36,000  Level Washington Center
03:23PM 37.6892 -79.0611 246° West 404 465 36,000  Level Washington Center
03:24PM 37.6439 -79.1903 246° West 409 471 36,000  Level Washington Center
03:25PM 37.5981 -79.3217 246° West 409 471 36,000  Level Washington Center
03:26PM 37.5525 -79.4453 245° Southwest 414 476 36,000  Level Washington Center
03:27PM 37.5064 -79.5764 246° West 414 476 36,000  Level Washington Center
03:28PM 37.4603 -79.7022 245° Southwest 409 471 36,000  Level Washington Center
03:29PM 37.4167 -79.8228 246° West 415 478 36,000  Level Washington Center
03:30PM 37.3725 -79.9431 245° Southwest 410 472 36,000  Level Washington Center
03:31PM 37.3242 -80.0711 245° Southwest 410 472 36,000  Level Washington Center
03:32PM 37.2878 -80.1625 243° Southwest 408 470 36,000  Level Atlanta Center
03:33PM 37.2439 -80.2900 247° West 408 470 36,000  Level Atlanta Center
03:34PM 37.1956 -80.4147 244° Southwest 408 470 36,000  Level Atlanta Center
03:35PM 37.1469 -80.5419 244° Southwest 408 470 36,000  Level Atlanta Center
03:36PM 37.0944 -80.6769 244° Southwest 408 470 36,000  Level Atlanta Center
03:37PM 37.0394 -80.7989 241° Southwest 408 470 36,000  Level Atlanta Center
03:38PM 36.9861 -80.9153 240° Southwest 403 464 36,000  Level Atlanta Center
03:39PM 36.9386 -81.0211 241° Southwest 398 458 36,000  Level Atlanta Center
03:40PM 36.8872 -81.1372 241° Southwest 393 452 36,000  Level Atlanta Center
03:41PM 36.8336 -81.2533 240° Southwest 393 452 36,000  Level Atlanta Center
03:42PM 36.7800 -81.3719 241° Southwest 388 447 36,000  Level Atlanta Center
03:43PM 36.7325 -81.4850 242° Southwest 374 430 36,000  Level Atlanta Center
03:44PM 36.6725 -81.6136 240° Southwest 386 444 36,000  Level Atlanta Center
03:45PM 36.6183 -81.7317 240° Southwest 386 444 36,000  Level Atlanta Center
03:46PM 36.5642 -81.8469 240° Southwest 386 444 36,000  Level Atlanta Center
03:47PM 36.5100 -81.9647 240° Southwest 386 444 36,000  Level Atlanta Center
03:48PM 36.4536 -82.0822 239° Southwest 386 444 36,000  Level Atlanta Center
03:49PM 36.3992 -82.1997 240° Southwest 393 452 36,000  Level Atlanta Center
03:50PM 36.3444 -82.3194 240° Southwest 398 458 36,000  Level Atlanta Center
03:51PM 36.2792 -82.4289 234° Southwest 403 464 36,000  Level Atlanta Center
03:52PM 36.2117 -82.5333 231° Southwest 403 464 36,000  Level Atlanta Center
03:53PM 36.1419 -82.6400 231° Southwest 403 464 36,000  Level Atlanta Center
03:54PM 36.0744 -82.7439 231° Southwest 403 464 36,000  Level Atlanta Center
03:55PM 36.0067 -82.8503 232° Southwest 403 464 36,000  Level Atlanta Center
03:56PM 35.9389 -82.9589 232° Southwest 403 464 36,000  Level Atlanta Center
03:57PM 35.8708 -83.0625 231° Southwest 397 457 36,000  Level Atlanta Center
03:58PM 35.8008 -83.1683 231° Southwest 397 457 36,000  Level Atlanta Center
03:59PM 35.7347 -83.2764 233° Southwest 402 463 36,000  Level Atlanta Center
04:00PM 35.6644 -83.3792 230° Southwest 402 463 36,000  Level Atlanta Center
04:01PM 35.5897 -83.4872 230° Southwest 402 463 36,000  Level Atlanta Center
04:02PM 35.5172 -83.5922 230° Southwest 402 463 36,000  Level Atlanta Center
04:03PM 35.4319 -83.6819 221° Southwest 402 463 36,000  Level Atlanta Center
04:04PM 35.3425 -83.7664 218° Southwest 408 470 36,000  Level Atlanta Center
04:05PM 35.2528 -83.8531 218° Southwest 408 470 36,000  Level Atlanta Center
04:06PM 35.1633 -83.9372 218° Southwest 413 475 36,000  Level Atlanta Center
04:07PM 35.0922 -84.0414 230° Southwest 407 468 36,000  Level Atlanta Center
04:08PM 35.0547 -84.1708 251° West 396 456 36,000  Level Atlanta Center
04:09PM 35.0253 -84.3050 255° West 401 461 36,000 300 Level Atlanta Center
04:10PM 34.9936 -84.4419 254° West 420 483 36,600 780 Climbing Atlanta Center
04:11PM 34.9619 -84.5761 254° West 420 483 37,600 660 Climbing Atlanta Center
04:12PM 34.9297 -84.7153 254° West 420 483 38,000 180 Climbing Atlanta Center
04:13PM 34.8956 -84.8517 253° West 420 483 38,000  Level Atlanta Center
04:14PM 34.8633 -84.9906 254° West 420 483 38,000  Level Atlanta Center
04:15PM 34.8289 -85.1294 253° West 426 490 38,000  Level Atlanta Center
04:16PM 34.7961 -85.2681 254° West 431 496 38,000  Level Atlanta Center
04:17PM 34.7633 -85.4067 254° West 431 496 38,000 -600 Level Atlanta Center
04:18PM 34.7306 -85.5450 254° West 431 496 36,900 -1,020 Descending Atlanta Center
04:19PM 34.6975 -85.6733 253° West 420 483 36,000 -480 Descending Atlanta Center
04:20PM 34.6664 -85.8067 254° West 415 478 36,000 -300 Level Atlanta Center
04:21PM 34.6397 -85.9172 254° West 407 468 35,400 -840 Descending Atlanta Center
04:22PM 34.6086 -86.0400 253° West 395 455 34,400 -900 Descending Atlanta Center
04:23PM 34.5794 -86.1656 254° West 395 455 33,700 -2,280 Descending Atlanta Center
04:24PM 34.5436 -86.2958 252° West 395 455 29,900 -1,920 Descending Atlanta Center
04:25PM 34.5097 -86.4336 253° West 416 479 29,900  Level Atlanta Center
04:26PM 34.4736 -86.5686 252° West 421 484 30,000  Climbing Atlanta Center
04:27PM 34.4178 -86.7947 253° West 428 493 30,000  Level Memphis Center
04:28PM 34.3783 -86.9472 253° West 428 493 30,000  Level Memphis Center
04:29PM 34.3425 -87.0869 253° West 438 504 30,000  Level Memphis Center
04:30PM 34.3103 -87.2139 253° West 420 483 30,000  Level Memphis Center
04:31PM 34.2742 -87.3561 253° West 430 495 30,000  Level Memphis Center
04:32PM 34.2375 -87.4806 250° West 430 495 30,000  Level Memphis Center
04:33PM 34.2031 -87.6222 254° West 435 501 30,000  Level Memphis Center
04:34PM 34.1642 -87.7589 251° West 440 506 30,000  Level Memphis Center
04:35PM 34.1294 -87.8931 253° West 429 494 30,000  Level Memphis Center
04:36PM 34.0944 -88.0244 252° West 419 482 30,000  Level Memphis Center
04:37PM 34.0572 -88.1583 251° West 419 482 30,000  Level Memphis Center
04:38PM 34.0139 -88.3122 251° West 432 497 30,000  Level Memphis Center
04:39PM 33.9783 -88.4458 252° West 427 491 30,000  Level Memphis Center
04:40PM 33.9450 -88.5744 253° West 421 484 30,000 -300 Level Memphis Center
04:41PM 33.9111 -88.7028 252° West 415 478 29,500 -780 Descending Memphis Center
04:42PM 33.8753 -88.8286 251° West 410 472 28,500 -1,620 Descending Memphis Center
04:43PM 33.8392 -88.9517 251° West 401 461 26,400 -1,260 Descending Memphis Center
04:44PM 33.8072 -89.0772 253° West 414 476 26,000 -240 Descending Memphis Center
04:45PM 33.7686 -89.2078 250° West 426 490 26,000  Level Memphis Center
04:46PM 33.7344 -89.3431 253° West 426 490 26,000  Level Memphis Center
04:47PM 33.6978 -89.4708 251° West 426 490 26,000  Level Memphis Center
04:48PM 33.6589 -89.5961 250° West 421 484 26,000  Level Memphis Center
04:49PM 33.6242 -89.7211 252° West 408 470 26,000  Level Memphis Center
04:50PM 33.5894 -89.8461 252° West 408 470 26,000  Level Memphis Center
04:51PM 33.5542 -89.9658 251° West 403 464 26,000  Level Memphis Center
04:52PM 33.5211 -90.0881 252° West 397 457 26,000  Level Memphis Center
04:53PM 33.4797 -90.2178 249° West 391 450 26,000  Level Memphis Center
04:54PM 33.4422 -90.3397 250° West 391 450 26,000  Level Memphis Center
04:55PM 33.4067 -90.4617 251° West 391 450 26,000  Level Memphis Center
04:56PM 33.3669 -90.5886 249° West 396 456 26,000  Level Memphis Center
04:57PM 33.3269 -90.7103 249° West 396 456 26,000  Level Memphis Center
04:58PM 33.2889 -90.8344 250° West 401 461 26,000  Level Memphis Center
04:59PM 33.2508 -90.9583 250° West 401 461 26,000  Level Memphis Center
05:00PM 33.2106 -91.0847 249° West 406 467 26,000  Level Memphis Center
05:01PM 33.1742 -91.2111 251° West 406 467 26,000  Level Memphis Center
05:02PM 33.1336 -91.3347 249° West 406 467 26,000  Level Memphis Center
05:05PM 33.0556 -91.5919 250° West 402 463 26,000  Level Fort Worth Center
05:06PM 33.0131 -91.7136 247° West 402 463 26,000  Level Fort Worth Center
05:07PM 32.9850 -91.8292 254° West 407 468 26,000  Level Fort Worth Center
05:08PM 32.9408 -91.9656 249° West 417 480 26,000  Level Fort Worth Center
05:09PM 32.8922 -92.0997 247° West 428 493 26,000  Level Fort Worth Center
05:10PM 32.8519 -92.2356 251° West 438 504 26,000  Level Fort Worth Center
05:11PM 32.8094 -92.3689 249° West 438 504 26,000  Level Fort Worth Center
05:12PM 32.7606 -92.5050 247° West 438 504 26,000  Level Fort Worth Center
05:13PM 32.7175 -92.6358 249° West 438 504 26,000  Level Fort Worth Center
05:14PM 32.6767 -92.7689 250° West 438 504 26,000  Level Fort Worth Center
05:15PM 32.6333 -92.8944 248° West 438 504 26,000  Level Fort Worth Center
05:16PM 32.5900 -93.0272 249° West 438 504 26,000  Level Fort Worth Center
05:17PM 32.5444 -93.1625 248° West 438 504 26,000  Level Fort Worth Center
05:18PM 32.5031 -93.2925 249° West 438 504 26,000  Level Fort Worth Center
05:19PM 32.4569 -93.4200 247° West 432 497 26,000  Level Fort Worth Center
05:20PM 32.4153 -93.5547 250° West 432 497 26,000  Level Fort Worth Center
05:21PM 32.4025 -93.6906 264° West 432 497 26,000  Level Fort Worth Center
05:22PM 32.3919 -93.8314 265° West 426 490 26,000  Level Fort Worth Center
05:23PM 32.3794 -93.9744 264° West 431 496 26,000  Level Fort Worth Center
05:24PM 32.3686 -94.1150 265° West 437 503 26,000  Level Fort Worth Center
05:25PM 32.3558 -94.2706 264° West 437 503 26,000  Level Fort Worth Center
05:26PM 32.3425 -94.4136 264° West 437 503 26,000  Level Fort Worth Center
05:27PM 32.3314 -94.5614 265° West 447 514 26,000  Level Fort Worth Center
05:28PM 32.3158 -94.7044 263° West 447 514 26,000  Level Fort Worth Center
05:29PM 32.3042 -94.8497 265° West 447 514 26,000 -300 Level Fort Worth Center
05:30PM 32.2989 -94.9975 268° West 447 514 25,400 -840 Descending Fort Worth Center
05:31PM 32.2828 -95.1403 262° West 447 514 24,400 -720 Descending Fort Worth Center
05:32PM 32.2706 -95.2881 264° West 447 514 24,000 -240 Descending Fort Worth Center
05:33PM 32.2833 -95.4303 276° West 442 509 24,000  Level Fort Worth Center
05:34PM 32.2939 -95.5775 275° West 442 509 24,000  Level Fort Worth Center
05:35PM 32.3125 -95.7172 279° West 442 509 24,000 -240 Level Fort Worth Center
05:36PM 32.3228 -95.8647 275° West 442 509 23,600 -780 Descending Fort Worth Center
05:37PM 32.3369 -95.9972 277° West 426 490 22,500 -1,500 Descending Fort Worth Center
05:38PM 32.3508 -96.1150 278° West 411 473 20,700 -2,160 Descending Fort Worth Center
05:39PM 32.3625 -96.2525 276° West 398 458 18,200 -2,280 Descending Fort Worth Center
05:40PM 32.3739 -96.3631 277° West 385 443 16,200 -1,800 Descending Fort Worth Center
05:41PM 32.4019 -96.4783 286° West 353 406 14,700 -1,260 Descending Fort Worth Center
05:42PM 32.4631 -96.5467 317° Northwest 324 373 13,700 -1,800 Descending Fort Worth Center
05:43PM 32.5344 -96.6322 315° West 332 382 11,200 -1,320 Descending Fort Worth Center
05:44PM 32.5914 -96.7008 315° West 329 379 11,100 -180 Descending Fort Worth Center
05:44PM 32.6333 -96.7500 315° West 309 356 11,000 -120 Descending Dallas / Fort Worth TRACON
05:45PM 32.7000 -96.8167 320° Northwest 310 357 11,000  Level Dallas / Fort Worth TRACON
05:46PM 32.7500 -96.8833 312° West 305 351 11,000  Level Dallas / Fort Worth TRACON
05:47PM 32.8167 -96.9000 348° North 273 314 11,000 -540 Level Dallas / Fort Worth TRACON
05:48PM 32.9000 -96.9000 360° North 275 316 10,000 -1,200 Descending Dallas / Fort Worth TRACON
05:49PM 32.9667 -96.9000 360° North 267 307 8,600 -1,440 Descending Dallas / Fort Worth TRACON
05:50PM 33.0500 -96.9000 360° North 262 302 7,200 -1,320 Descending Dallas / Fort Worth TRACON
05:51PM 33.1167 -96.9000 360° North 244 281 6,000 -1,200 Descending Dallas / Fort Worth TRACON
05:52PM 33.1475 -96.9172 335° Northwest 248 285 5,400 -1,020 Descending Fort Worth Center
05:53PM 33.1583 -96.9817 281° West 199 229 4,500 -840 Descending Fort Worth Center
05:54PM 33.0833 -97.0000 192° South 191 220 3,400 -780 Descending Dallas / Fort Worth TRACON